createdAt,value
2019-01-21T00:02:04.327Z,45.33
2019-01-21T00:04:31.308Z,38.57
2019-01-21T00:06:58.264Z,38.23
2019-01-21T00:09:25.269Z,38.10
2019-01-21T00:11:52.227Z,41.67
2019-01-21T00:14:19.195Z,40.30
2019-01-21T00:16:46.178Z,42.40
2019-01-21T00:19:13.203Z,36.90
2019-01-21T00:21:40.172Z,37.17
2019-01-21T00:24:07.168Z,39.30
2019-01-21T00:26:34.083Z,31.50
2019-01-21T00:29:01.062Z,35.33
2019-01-21T00:31:27.992Z,36.47
2019-01-21T00:33:54.949Z,29.80
2019-01-21T00:36:21.859Z,37.57
2019-01-21T00:38:48.776Z,34.63
2019-01-21T00:41:15.770Z,31.83
2019-01-21T00:43:42.700Z,36.33
2019-01-21T00:46:09.708Z,34.00
2019-01-21T00:48:36.637Z,38.50
2019-01-21T00:51:03.650Z,32.93
2019-01-21T00:53:30.539Z,34.73
2019-01-21T00:55:57.490Z,31.70
2019-01-21T00:58:24.463Z,26.43
2019-01-21T01:00:51.529Z,32.37
2019-01-21T01:03:18.495Z,29.33
2019-01-21T01:05:45.515Z,31.17
2019-01-21T01:08:12.469Z,28.00
2019-01-21T01:10:39.491Z,31.87
2019-01-21T01:13:06.589Z,26.70
2019-01-21T01:15:33.582Z,35.37
2019-01-21T01:18:00.532Z,32.33
2019-01-21T01:20:27.600Z,30.93
2019-01-21T01:22:54.543Z,31.20
2019-01-21T01:25:21.614Z,41.17
2019-01-21T01:27:48.607Z,26.87
2019-01-21T01:30:16.618Z,31.07
2019-01-21T01:32:43.571Z,29.23
2019-01-21T01:35:12.229Z,31.67
2019-01-21T01:37:39.964Z,30.63
2019-01-21T01:40:10.193Z,28.10
2019-01-21T01:42:37.207Z,27.77
2019-01-21T01:45:04.894Z,33.10
2019-01-21T01:47:32.141Z,33.70
2019-01-21T01:49:59.226Z,30.07
2019-01-21T01:52:26.195Z,31.30
2019-01-21T01:54:53.216Z,27.90
2019-01-21T01:57:20.207Z,29.83
2019-01-21T01:59:47.309Z,29.43
2019-01-21T02:02:14.318Z,28.73
2019-01-21T02:04:41.441Z,25.20
2019-01-21T02:07:08.518Z,27.43
2019-01-21T02:09:35.463Z,25.70
2019-01-21T02:12:02.573Z,26.37
2019-01-21T02:14:29.500Z,24.80
2019-01-21T02:16:56.472Z,27.47
2019-01-21T02:19:25.871Z,23.93
2019-01-21T02:21:56.267Z,25.87
2019-01-21T02:24:25.070Z,29.40
2019-01-21T02:27:19.811Z,31.40
2019-01-21T02:30:17.488Z,23.90
2019-01-21T02:33:27.663Z,29.20
2019-01-21T02:36:21.787Z,24.50
2019-01-21T02:39:06.233Z,24.03
2019-01-21T02:41:46.395Z,25.60
2019-01-21T02:44:32.781Z,31.60
2019-01-21T02:47:26.656Z,27.10
2019-01-21T02:50:21.891Z,23.33
2019-01-21T02:53:22.044Z,28.80
2019-01-21T02:56:52.343Z,23.40
2019-01-21T03:00:07.317Z,30.20
2019-01-21T03:02:50.343Z,27.20
2019-01-21T03:05:43.024Z,30.07
2019-01-21T03:08:31.515Z,24.63
2019-01-21T03:11:49.248Z,23.53
2019-01-21T03:14:40.151Z,33.53
2019-01-21T03:17:49.214Z,22.33
2019-01-21T03:20:30.741Z,24.00
2019-01-21T03:23:44.311Z,28.47
2019-01-21T03:26:55.866Z,27.03
2019-01-21T03:29:47.975Z,29.13
2019-01-21T03:32:55.314Z,31.80
2019-01-21T03:36:04.342Z,27.00
2019-01-21T03:38:58.402Z,26.80
2019-01-21T03:41:50.233Z,26.93
2019-01-21T03:44:59.885Z,28.77
2019-01-21T03:48:00.945Z,26.57
2019-01-21T03:50:59.414Z,23.57
2019-01-21T03:54:14.737Z,26.40
2019-01-21T03:57:02.664Z,32.23
2019-01-21T03:59:48.115Z,27.23
2019-01-21T04:02:45.833Z,26.77
2019-01-21T04:05:49.791Z,27.70
2019-01-21T04:09:13.611Z,28.47
2019-01-21T04:12:05.946Z,32.53
2019-01-21T04:14:48.865Z,26.30
2019-01-21T04:17:59.626Z,29.40
2019-01-21T04:20:38.178Z,25.20
2019-01-21T04:23:47.649Z,25.70
2019-01-21T04:26:55.203Z,24.97
2019-01-21T04:30:01.493Z,27.50
2019-01-21T04:32:57.618Z,28.00
2019-01-21T04:35:51.420Z,30.60
2019-01-21T04:38:58.074Z,28.33
2019-01-21T04:41:38.686Z,25.03
2019-01-21T04:45:02.341Z,25.43
2019-01-21T04:48:07.504Z,22.60
2019-01-21T04:51:10.535Z,25.37
2019-01-21T04:54:03.878Z,26.80
2019-01-21T04:57:02.934Z,26.40
2019-01-21T05:00:23.840Z,24.63
2019-01-21T05:03:19.447Z,26.30
2019-01-21T05:06:16.454Z,23.93
2019-01-21T05:09:13.997Z,25.33
2019-01-21T05:12:08.130Z,22.53
2019-01-21T05:15:00.785Z,29.43
2019-01-21T05:17:54.767Z,24.17
2019-01-21T05:20:46.697Z,25.13
2019-01-21T05:23:52.823Z,31.20
2019-01-21T05:26:54.653Z,26.80
2019-01-21T05:29:48.508Z,25.83
2019-01-21T05:32:56.497Z,23.33
2019-01-21T05:36:05.520Z,21.17
2019-01-21T05:38:58.882Z,31.40
2019-01-21T05:42:16.674Z,29.90
2019-01-21T05:45:30.535Z,24.00
2019-01-21T05:48:48.706Z,21.17
2019-01-21T05:51:56.661Z,26.87
2019-01-21T05:54:58.454Z,23.27
2019-01-21T05:58:02.770Z,26.33
2019-01-21T06:01:03.347Z,26.40
2019-01-21T06:04:01.672Z,25.37
2019-01-21T06:07:13.071Z,30.47
2019-01-21T06:10:09.299Z,25.27
2019-01-21T06:13:05.471Z,27.67
2019-01-21T06:15:55.304Z,28.27
2019-01-21T06:19:03.624Z,26.67
2019-01-21T06:22:18.307Z,25.73
2019-01-21T06:25:20.489Z,26.70
2019-01-21T06:28:28.204Z,30.10
2019-01-21T06:31:34.175Z,32.60
2019-01-21T06:34:43.907Z,30.80
2019-01-21T06:37:42.509Z,35.40
2019-01-21T06:40:49.985Z,26.50
2019-01-21T06:43:54.362Z,32.50
2019-01-21T06:46:45.227Z,37.60
2019-01-21T06:49:39.659Z,30.70
2019-01-21T06:52:42.680Z,32.90
2019-01-21T06:55:26.796Z,25.47
2019-01-21T06:58:38.826Z,26.40
2019-01-21T07:01:51.751Z,28.73
2019-01-21T07:05:15.231Z,29.73
2019-01-21T07:08:24.018Z,26.10
2019-01-21T07:11:19.953Z,26.30
2019-01-21T07:14:07.525Z,37.40
2019-01-21T07:17:19.361Z,34.83
2019-01-21T07:20:19.435Z,35.23
2019-01-21T07:23:19.352Z,27.93
2019-01-21T07:26:28.020Z,31.93
2019-01-21T07:29:19.671Z,30.50
2019-01-21T07:32:10.888Z,31.03
2019-01-21T07:35:20.735Z,31.73
2019-01-21T07:38:29.571Z,33.57
2019-01-21T07:41:22.071Z,30.50
2019-01-21T07:44:19.424Z,32.53
2019-01-21T07:47:29.316Z,35.13
2019-01-21T07:50:13.383Z,32.90
2019-01-21T07:53:22.198Z,28.20
2019-01-21T07:56:09.883Z,32.20
2019-01-21T07:59:14.301Z,30.80
2019-01-21T08:01:49.088Z,31.07
2019-01-21T08:04:36.621Z,29.17
2019-01-21T08:07:30.592Z,37.53
2019-01-21T08:10:40.990Z,30.23
2019-01-21T08:13:39.200Z,36.40
2019-01-21T08:17:03.557Z,45.17
2019-01-21T08:19:56.307Z,46.20
2019-01-21T08:22:57.218Z,46.83
2019-01-21T08:26:07.986Z,41.13
2019-01-21T08:29:10.819Z,52.40
2019-01-21T08:32:03.283Z,66.73
2019-01-21T08:35:30.232Z,79.40
2019-01-21T08:38:23.797Z,69.20
2019-01-21T08:41:20.096Z,56.20
2019-01-21T08:44:24.568Z,52.17
2019-01-21T08:47:28.957Z,46.50
2019-01-21T08:50:14.784Z,49.20
2019-01-21T08:53:21.209Z,44.20
2019-01-21T08:56:39.618Z,48.37
2019-01-21T08:59:21.388Z,38.37
2019-01-21T09:02:20.851Z,34.20
2019-01-21T09:05:37.185Z,36.30
2019-01-21T09:08:40.478Z,42.07
2019-01-21T09:11:27.158Z,42.20
2019-01-21T09:14:23.826Z,41.00
2019-01-21T09:17:34.246Z,42.60
2019-01-21T09:20:37.454Z,38.07
2019-01-21T09:23:43.441Z,44.33
2019-01-21T09:26:32.400Z,38.90
2019-01-21T09:29:18.907Z,38.43
2019-01-21T09:31:53.807Z,41.47
2019-01-21T09:34:29.562Z,39.40
2019-01-21T09:37:16.302Z,43.23
2019-01-21T09:40:07.927Z,55.10
2019-01-21T09:42:43.254Z,40.40
2019-01-21T09:45:53.735Z,38.90
2019-01-21T09:48:19.915Z,43.17
2019-01-21T09:50:47.845Z,44.20
2019-01-21T09:53:14.740Z,44.70
2019-01-21T09:55:44.946Z,40.83
2019-01-21T09:58:11.859Z,46.13
2019-01-21T10:00:39.111Z,44.57
2019-01-21T10:03:07.517Z,41.63
2019-01-21T10:05:35.781Z,42.30
2019-01-21T10:08:22.606Z,43.20
2019-01-21T10:11:28.296Z,38.83
2019-01-21T10:14:20.765Z,44.27
2019-01-21T10:17:14.944Z,37.90
2019-01-21T10:20:44.807Z,40.20
2019-01-21T10:23:43.965Z,46.00
2019-01-21T10:26:51.160Z,40.73
2019-01-21T10:29:32.506Z,41.73
2019-01-21T10:32:39.927Z,40.40
2019-01-21T10:35:47.065Z,37.97
2019-01-21T10:39:02.535Z,42.03
2019-01-21T10:42:04.984Z,37.33
2019-01-21T10:45:34.658Z,38.73
2019-01-21T10:48:12.083Z,43.40
2019-01-21T10:51:38.934Z,39.27
2019-01-21T10:54:31.381Z,41.47
2019-01-21T10:57:39.485Z,36.97
2019-01-21T11:00:53.479Z,41.37
2019-01-21T11:03:56.919Z,40.10
2019-01-21T11:06:43.978Z,42.90
2019-01-21T11:09:26.801Z,45.33
2019-01-21T11:12:36.057Z,46.30
2019-01-21T11:15:34.799Z,35.07
2019-01-21T11:18:42.375Z,46.90
2019-01-21T11:21:27.111Z,38.33
2019-01-21T11:24:31.219Z,36.87
2019-01-21T11:27:44.349Z,41.53
2019-01-21T11:30:45.220Z,41.17
2019-01-21T11:33:35.896Z,42.87
2019-01-21T11:36:46.526Z,44.67
2019-01-21T11:39:55.292Z,41.10
2019-01-21T11:42:48.416Z,44.37
2019-01-21T11:45:39.578Z,42.03
2019-01-21T11:48:40.614Z,38.60
2019-01-21T11:51:58.970Z,39.80
2019-01-21T11:54:58.822Z,41.83
2019-01-21T11:57:52.048Z,51.40
2019-01-21T12:00:51.656Z,45.23
2019-01-21T12:03:44.097Z,56.77
2019-01-21T12:06:16.640Z,40.03
2019-01-21T12:09:27.551Z,48.60
2019-01-21T12:12:13.577Z,50.37
2019-01-21T12:14:55.165Z,38.20
2019-01-21T12:18:00.439Z,49.70
2019-01-21T12:21:05.749Z,55.30
2019-01-21T12:23:51.401Z,44.03
2019-01-21T12:27:13.571Z,34.80
2019-01-21T12:30:07.570Z,38.20
2019-01-21T12:33:09.282Z,45.07
2019-01-21T12:35:45.603Z,45.03
2019-01-21T12:38:47.888Z,39.13
2019-01-21T12:41:47.074Z,38.40
2019-01-21T12:44:39.292Z,38.67
2019-01-21T12:47:48.245Z,45.63
2019-01-21T12:51:20.952Z,33.97
2019-01-21T12:54:16.128Z,40.53
2019-01-21T12:57:22.194Z,39.10
2019-01-21T13:00:26.927Z,35.20
2019-01-21T13:03:27.904Z,31.17
2019-01-21T13:06:37.962Z,32.40
2019-01-21T13:09:17.285Z,43.10
2019-01-21T13:11:57.440Z,32.07
2019-01-21T13:14:55.356Z,36.40
2019-01-21T13:17:35.352Z,39.13
2019-01-21T13:20:30.930Z,36.80
2019-01-21T13:23:31.451Z,34.47
2019-01-21T13:26:34.885Z,38.40
2019-01-21T13:29:24.311Z,36.17
2019-01-21T13:32:29.371Z,39.17
2019-01-21T13:35:36.188Z,34.30
2019-01-21T13:38:43.666Z,30.80
2019-01-21T13:41:48.152Z,32.40
2019-01-21T13:44:36.366Z,39.77
2019-01-21T13:47:31.976Z,29.57
2019-01-21T13:50:09.808Z,30.00
2019-01-21T13:53:14.120Z,30.93
2019-01-21T13:56:03.142Z,28.30
2019-01-21T13:59:08.836Z,33.27
2019-01-21T14:01:51.451Z,30.63
2019-01-21T14:04:41.736Z,29.93
2019-01-21T14:07:40.111Z,30.17
2019-01-21T14:10:36.015Z,28.50
2019-01-21T14:13:36.310Z,28.33
2019-01-21T14:17:06.156Z,36.20
2019-01-21T14:20:07.692Z,31.57
2019-01-21T14:22:57.426Z,37.07
2019-01-21T14:26:00.759Z,35.80
2019-01-21T14:29:12.109Z,34.30
2019-01-21T14:32:08.233Z,26.70
2019-01-21T14:35:06.741Z,30.70
2019-01-21T14:38:39.340Z,30.90
2019-01-21T14:41:47.964Z,28.77
2019-01-21T14:44:58.652Z,32.23
2019-01-21T14:48:02.318Z,32.67
2019-01-21T14:51:05.867Z,34.57
2019-01-21T14:53:47.322Z,31.03
2019-01-21T14:56:32.757Z,30.43
2019-01-21T14:59:14.447Z,30.20
2019-01-21T15:02:16.653Z,35.50
2019-01-21T15:05:14.910Z,30.53
2019-01-21T15:08:19.581Z,31.77
2019-01-21T15:11:46.189Z,30.77
2019-01-21T15:14:32.386Z,28.20
2019-01-21T15:17:32.133Z,26.70
2019-01-21T15:20:09.139Z,26.47
2019-01-21T15:22:45.364Z,34.83
2019-01-21T15:26:21.368Z,33.37
2019-01-21T15:29:08.324Z,28.90
2019-01-21T15:32:06.734Z,25.10
2019-01-21T15:35:26.491Z,26.80
2019-01-21T15:38:18.448Z,28.83
2019-01-21T15:41:27.222Z,26.50
2019-01-21T15:44:21.061Z,25.80
2019-01-21T15:47:44.909Z,29.03
2019-01-21T15:50:28.733Z,24.93
2019-01-21T15:53:49.644Z,29.97
2019-01-21T15:57:26.073Z,27.23
2019-01-21T16:00:38.624Z,29.17
2019-01-21T16:04:08.213Z,28.80
2019-01-21T16:07:05.465Z,27.63
2019-01-21T16:10:15.895Z,24.53
2019-01-21T16:13:33.709Z,27.30
2019-01-21T16:17:00.617Z,35.37
2019-01-21T16:19:40.567Z,30.90
2019-01-21T16:22:43.555Z,33.80
2019-01-21T16:25:48.242Z,29.63
2019-01-21T16:28:46.765Z,33.70
2019-01-21T16:31:36.511Z,30.60
2019-01-21T16:34:56.088Z,29.77
2019-01-21T16:37:42.698Z,35.70
2019-01-21T16:40:40.716Z,49.33
2019-01-21T16:43:07.692Z,44.70
2019-01-21T16:45:34.654Z,41.13
2019-01-21T16:48:01.697Z,41.83
2019-01-21T16:50:28.578Z,38.17
2019-01-21T16:52:55.511Z,37.10
2019-01-21T16:55:22.413Z,36.77
2019-01-21T16:57:49.321Z,40.00
2019-01-21T17:00:16.396Z,38.30
2019-01-21T17:02:43.299Z,42.40
2019-01-21T17:05:10.795Z,35.90
2019-01-21T17:07:37.665Z,34.80
2019-01-21T17:10:05.835Z,39.60
2019-01-21T17:12:32.722Z,40.60
2019-01-21T17:14:59.620Z,35.47
2019-01-21T17:17:26.516Z,42.53
2019-01-21T17:19:53.420Z,40.53
2019-01-21T17:22:20.442Z,37.03
2019-01-21T17:24:47.409Z,37.93
2019-01-21T17:27:14.287Z,38.33
2019-01-21T17:29:41.215Z,40.80
2019-01-21T17:32:08.202Z,38.63
2019-01-21T17:34:35.159Z,41.47
2019-01-21T17:37:02.080Z,44.10
2019-01-21T17:39:28.992Z,40.23
2019-01-21T17:41:55.901Z,44.03
2019-01-21T17:44:22.942Z,51.93
2019-01-21T17:46:49.862Z,46.03
2019-01-21T17:49:16.775Z,46.23
2019-01-21T17:51:43.719Z,45.07
2019-01-21T17:54:10.620Z,41.43
2019-01-21T17:56:37.538Z,46.80
2019-01-21T17:59:04.477Z,43.40
2019-01-21T18:01:31.433Z,45.03
2019-01-21T18:03:58.369Z,55.77
2019-01-21T18:06:25.323Z,53.60
2019-01-21T18:08:52.600Z,53.73
2019-01-21T18:11:19.500Z,48.80
2019-01-21T18:13:46.578Z,45.10
2019-01-21T18:16:13.712Z,57.73
2019-01-21T18:18:40.619Z,51.00
2019-01-21T18:21:07.598Z,49.10
2019-01-21T18:23:34.606Z,54.43
2019-01-21T18:26:01.571Z,58.07
2019-01-21T18:28:28.831Z,59.57
2019-01-21T18:30:55.745Z,66.13
2019-01-21T18:33:22.742Z,60.53
2019-01-21T18:35:49.667Z,64.30
2019-01-21T18:38:16.711Z,51.57
2019-01-21T18:40:43.888Z,55.13
2019-01-21T18:43:10.813Z,44.17
2019-01-21T18:45:37.837Z,55.57
2019-01-21T18:48:05.010Z,48.50
2019-01-21T18:50:31.949Z,52.57
2019-01-21T18:52:58.896Z,57.00
2019-01-21T18:55:26.461Z,48.93
2019-01-21T18:57:55.995Z,46.97
2019-01-21T19:00:23.775Z,41.60
2019-01-21T19:02:50.664Z,42.20
2019-01-21T19:05:17.918Z,43.93
2019-01-21T19:07:45.058Z,39.07
2019-01-21T19:10:12.349Z,41.30
2019-01-21T19:12:39.327Z,45.77
2019-01-21T19:15:10.472Z,41.33
2019-01-21T19:17:37.391Z,40.13
2019-01-21T19:20:05.586Z,35.97
2019-01-21T19:22:32.619Z,41.20
2019-01-21T19:24:59.923Z,37.80
2019-01-21T19:27:26.793Z,37.53
2019-01-21T19:29:53.905Z,49.10
2019-01-21T19:32:20.866Z,56.90
2019-01-21T19:34:47.836Z,47.37
2019-01-21T19:37:14.752Z,55.87
2019-01-21T19:39:41.649Z,48.67
2019-01-21T19:42:09.052Z,62.67
2019-01-21T19:44:35.973Z,53.67
2019-01-21T19:47:03.077Z,46.87
2019-01-21T19:49:30.097Z,54.03
2019-01-21T19:52:00.423Z,48.93
2019-01-21T19:54:26.161Z,112.57
2019-01-21T19:56:53.160Z,49.07
2019-01-21T19:59:20.203Z,53.77
2019-01-21T20:01:47.163Z,46.07
2019-01-21T20:04:14.107Z,50.07
2019-01-21T20:06:41.116Z,80.63
2019-01-21T20:09:08.098Z,65.83
2019-01-21T20:11:35.091Z,72.37
2019-01-21T20:14:02.064Z,67.00
2019-01-21T20:16:29.302Z,75.77
2019-01-21T20:18:56.240Z,59.83
2019-01-21T20:21:23.261Z,84.80
2019-01-21T20:23:50.266Z,59.37
2019-01-21T20:26:17.207Z,56.90
2019-01-21T20:28:44.119Z,47.77
2019-01-21T20:31:11.037Z,55.00
2019-01-21T20:33:37.985Z,54.33
2019-01-21T20:36:04.990Z,53.77
2019-01-21T20:38:31.925Z,55.07
2019-01-21T20:40:58.864Z,45.97
2019-01-21T20:43:25.802Z,51.07
2019-01-21T20:45:52.734Z,47.97
2019-01-21T20:48:19.696Z,46.80
2019-01-21T20:50:46.635Z,46.10
2019-01-21T20:53:13.624Z,50.00
2019-01-21T20:55:40.538Z,49.13
2019-01-21T20:58:07.485Z,40.27
2019-01-21T21:00:35.773Z,43.70
2019-01-21T21:03:02.876Z,45.77
2019-01-21T21:05:30.072Z,45.87
2019-01-21T21:07:57.062Z,39.63
2019-01-21T21:10:24.386Z,44.17
2019-01-21T21:12:51.462Z,43.60
2019-01-21T21:15:20.697Z,39.87
2019-01-21T21:17:47.956Z,44.97
2019-01-21T21:20:14.985Z,37.37
2019-01-21T21:22:41.909Z,46.43
2019-01-21T21:25:10.944Z,35.90
2019-01-21T21:27:38.052Z,44.80
2019-01-21T21:30:07.961Z,45.07
2019-01-21T21:32:34.867Z,41.47
2019-01-21T21:35:01.926Z,44.40
2019-01-21T21:37:29.115Z,50.80
2019-01-21T21:39:56.352Z,49.13
2019-01-21T21:42:23.277Z,48.63
2019-01-21T21:44:50.384Z,53.40
2019-01-21T21:47:17.433Z,55.87
2019-01-21T21:49:44.386Z,49.50
2019-01-21T21:52:11.336Z,50.87
2019-01-21T21:54:38.660Z,50.00
2019-01-21T21:57:05.587Z,50.53
2019-01-21T21:59:32.974Z,52.47
2019-01-21T22:02:00.035Z,41.33
2019-01-21T22:04:26.955Z,53.97
2019-01-21T22:06:53.891Z,44.67
2019-01-21T22:09:21.030Z,50.70
2019-01-21T22:11:47.946Z,52.33
2019-01-21T22:14:15.353Z,43.50
2019-01-21T22:16:42.329Z,50.63
2019-01-21T22:19:09.395Z,53.23
2019-01-21T22:21:36.391Z,45.13
2019-01-21T22:24:03.429Z,45.07
2019-01-21T22:26:30.347Z,44.40
2019-01-21T22:28:57.289Z,46.57
2019-01-21T22:31:24.189Z,42.00
2019-01-21T22:33:51.131Z,47.80
2019-01-21T22:36:18.036Z,38.60
2019-01-21T22:38:44.960Z,35.47
2019-01-21T22:41:11.856Z,36.83
2019-01-21T22:43:39.078Z,35.83
2019-01-21T22:46:05.993Z,40.90
2019-01-21T22:48:32.939Z,34.80
2019-01-21T22:50:59.890Z,36.77
2019-01-21T22:53:26.818Z,34.97
2019-01-21T22:55:53.903Z,38.40
2019-01-21T22:58:20.894Z,39.83
2019-01-21T23:00:55.471Z,39.73
2019-01-21T23:03:23.239Z,35.10
2019-01-21T23:05:50.181Z,33.20
2019-01-21T23:08:17.297Z,33.90
2019-01-21T23:10:44.234Z,37.13
2019-01-21T23:13:11.192Z,39.50
2019-01-21T23:15:38.162Z,35.50
2019-01-21T23:18:05.394Z,42.17
2019-01-21T23:20:32.487Z,36.37
2019-01-21T23:22:59.473Z,36.10
2019-01-21T23:25:26.417Z,39.67
2019-01-21T23:27:53.402Z,38.43
2019-01-21T23:30:20.877Z,39.17
2019-01-21T23:32:47.765Z,38.87
2019-01-21T23:35:14.734Z,41.73
2019-01-21T23:37:41.657Z,41.30
2019-01-21T23:40:09.030Z,38.40
2019-01-21T23:42:35.984Z,38.10
2019-01-21T23:45:04.235Z,39.17
2019-01-21T23:47:31.138Z,31.93
2019-01-21T23:49:58.068Z,42.03
2019-01-21T23:52:25.026Z,36.17
2019-01-21T23:54:52.262Z,39.53
2019-01-21T23:57:19.176Z,40.23
2019-01-21T23:59:46.090Z,37.77
